Walters, Oklahoma
Current Conditions -  °F | °C
As of 8:53 PM on Monday 20 Oct 2014 (Local Time) from KLAW Reporting Station
Clear Clear  
Wind Chill: 71°   Ceiling: Unl
Heat Index: 71°   Visibility: 10mi
Dew Point: 58°   Wind: 3mph
Humidity: 63%   Direction: 150°SSE
Pressure: 30.02"   Gusts: NA
Location:  34.36°N, 98.31°W
Report Text: KLAW 210153Z AUTO 15003KT 10SM CLR 22/14 A3002 RMK AO2 SLP159 T02170144
Loading
Personal Weather Stations






























Interactive Weather Map
Tropical Storm Tracking
New forecast layout! Learn more

10-Day Weather Forecast

Advertisements
Track Severe Weather on mobile